createdAt,value
2018-03-28T00:02:08.442Z,7.68
2018-03-28T00:04:36.877Z,7.46
2018-03-28T00:07:05.370Z,7.30
2018-03-28T00:09:33.882Z,7.63
2018-03-28T00:12:02.342Z,7.22
2018-03-28T00:14:30.941Z,7.49
2018-03-28T00:16:59.358Z,7.71
2018-03-28T00:19:27.996Z,7.23
2018-03-28T00:21:56.436Z,7.29
2018-03-28T00:24:24.885Z,7.33
2018-03-28T00:26:53.495Z,6.98
2018-03-28T00:29:22.045Z,7.34
2018-03-28T00:31:50.915Z,7.47
2018-03-28T00:34:20.526Z,7.41
2018-03-28T00:36:49.887Z,7.73
2018-03-28T00:39:19.295Z,7.53
2018-03-28T00:41:48.083Z,7.09
2018-03-28T00:44:16.751Z,7.23
2018-03-28T00:46:45.326Z,6.84
2018-03-28T00:49:14.059Z,7.14
2018-03-28T00:51:42.507Z,7.36
2018-03-28T00:54:11.008Z,7.43
2018-03-28T00:56:39.454Z,7.86
2018-03-28T00:59:07.947Z,7.65
2018-03-28T01:01:37.127Z,7.28
2018-03-28T01:04:05.766Z,7.12
2018-03-28T01:06:34.499Z,7.15
2018-03-28T01:09:03.290Z,7.40
2018-03-28T01:11:32.315Z,7.34
2018-03-28T01:14:04.575Z,7.78
2018-03-28T01:16:33.295Z,7.56
2018-03-28T01:19:01.771Z,7.52
2018-03-28T01:21:30.183Z,7.55
2018-03-28T01:23:58.594Z,7.76
2018-03-28T01:26:27.306Z,7.37
2018-03-28T01:29:00.019Z,7.69
2018-03-28T01:31:28.512Z,7.86
2018-03-28T01:33:57.150Z,7.74
2018-03-28T01:36:25.690Z,8.03
2018-03-28T01:38:54.275Z,7.87
2018-03-28T01:41:23.043Z,7.70
2018-03-28T01:43:51.642Z,7.87
2018-03-28T01:46:20.227Z,7.56
2018-03-28T01:48:50.805Z,7.67
2018-03-28T01:51:19.239Z,7.69
2018-03-28T01:53:48.174Z,7.84
2018-03-28T01:56:17.504Z,8.08
2018-03-28T01:58:46.329Z,8.12
2018-03-28T02:01:17.962Z,7.25
2018-03-28T02:03:46.577Z,7.83
2018-03-28T02:06:14.962Z,7.78
2018-03-28T02:08:43.502Z,7.63
2018-03-28T02:11:11.999Z,7.33
2018-03-28T02:13:40.777Z,7.60
2018-03-28T02:16:10.232Z,7.47
2018-03-28T02:18:38.938Z,7.60
2018-03-28T02:21:07.490Z,7.45
2018-03-28T02:23:37.333Z,7.48
2018-03-28T02:26:06.031Z,7.86
2018-03-28T02:28:35.366Z,8.11
2018-03-28T02:31:04.477Z,7.73
2018-03-28T02:33:33.121Z,7.11
2018-03-28T02:36:02.323Z,7.05
2018-03-28T02:38:30.906Z,7.25
2018-03-28T02:41:00.149Z,7.12
2018-03-28T02:43:28.738Z,7.06
2018-03-28T02:45:57.460Z,7.25
2018-03-28T02:48:26.848Z,7.12
2018-03-28T02:50:55.293Z,7.34
2018-03-28T02:53:23.782Z,7.36
2018-03-28T02:55:52.292Z,7.07
2018-03-28T02:58:20.771Z,7.40
2018-03-28T03:00:52.155Z,7.33
2018-03-28T03:03:21.272Z,7.25
2018-03-28T03:05:49.964Z,7.26
2018-03-28T03:08:18.415Z,7.10
2018-03-28T03:10:47.163Z,7.61
2018-03-28T03:13:15.886Z,7.62
2018-03-28T03:15:44.601Z,7.43
2018-03-28T03:18:13.438Z,7.77
2018-03-28T03:20:43.800Z,7.38
2018-03-28T03:23:12.544Z,7.11
2018-03-28T03:25:41.821Z,7.00
2018-03-28T03:28:12.518Z,7.30
2018-03-28T03:30:43.184Z,7.32
2018-03-28T03:33:11.778Z,7.45
2018-03-28T03:35:42.073Z,7.65
2018-03-28T03:38:11.344Z,7.68
2018-03-28T03:40:40.026Z,7.48
2018-03-28T03:43:09.002Z,7.43
2018-03-28T03:45:39.190Z,8.10
2018-03-28T03:48:07.572Z,7.98
2018-03-28T03:50:36.270Z,7.40
2018-03-28T03:53:04.795Z,7.68
2018-03-28T03:55:34.354Z,7.82
2018-03-28T03:58:03.003Z,7.98
2018-03-28T04:00:31.551Z,7.75
2018-03-28T04:02:59.989Z,7.70
2018-03-28T04:05:28.507Z,7.62
2018-03-28T04:07:56.982Z,7.47
2018-03-28T04:10:25.462Z,7.42
2018-03-28T04:12:53.987Z,7.46
2018-03-28T04:15:22.527Z,7.74
2018-03-28T04:17:51.076Z,7.70
2018-03-28T04:20:19.667Z,7.77
2018-03-28T04:22:48.137Z,7.42
2018-03-28T04:25:16.735Z,7.66
2018-03-28T04:27:45.300Z,7.76
2018-03-28T04:30:13.815Z,7.63
2018-03-28T04:32:42.212Z,7.77
2018-03-28T04:35:10.855Z,7.56
2018-03-28T04:37:40.057Z,7.56
2018-03-28T04:40:10.425Z,7.77
2018-03-28T04:42:39.043Z,8.23
2018-03-28T04:45:09.191Z,8.26
2018-03-28T04:47:37.663Z,8.08
2018-03-28T04:50:06.079Z,7.92
2018-03-28T04:52:35.433Z,7.20
2018-03-28T04:55:04.398Z,7.24
2018-03-28T04:57:33.512Z,7.30
2018-03-28T05:00:02.223Z,7.24
2018-03-28T05:02:30.941Z,7.31
2018-03-28T05:04:59.827Z,7.16
2018-03-28T05:07:29.116Z,7.47
2018-03-28T05:09:58.682Z,7.44
2018-03-28T05:12:28.318Z,7.45
2018-03-28T05:14:57.986Z,7.96
2018-03-28T05:17:26.636Z,7.73
2018-03-28T05:19:55.540Z,7.90
2018-03-28T05:22:24.643Z,7.73
2018-03-28T05:24:53.320Z,7.95
2018-03-28T05:27:21.867Z,7.64
2018-03-28T05:29:50.832Z,7.72
2018-03-28T05:32:19.247Z,7.59
2018-03-28T05:34:48.390Z,7.78
2018-03-28T05:37:17.509Z,7.59
2018-03-28T05:39:46.541Z,7.75
2018-03-28T05:42:15.794Z,7.24
2018-03-28T05:44:44.939Z,7.08
2018-03-28T05:47:14.012Z,7.10
2018-03-28T05:49:42.827Z,7.63
2018-03-28T05:52:11.777Z,7.45
2018-03-28T05:54:41.171Z,7.08
2018-03-28T05:57:10.060Z,7.32
2018-03-28T05:59:39.060Z,6.79
2018-03-28T06:02:07.653Z,6.90
2018-03-28T06:04:36.387Z,6.95
2018-03-28T06:07:04.891Z,6.70
2018-03-28T06:09:33.408Z,6.62
2018-03-28T06:12:01.816Z,6.61
2018-03-28T06:14:30.339Z,6.75
2018-03-28T06:16:58.811Z,6.53
2018-03-28T06:19:27.258Z,6.47
2018-03-28T06:21:55.791Z,6.17
2018-03-28T06:24:24.180Z,6.22
2018-03-28T06:26:52.593Z,6.25
2018-03-28T06:29:20.988Z,6.08
2018-03-28T06:31:49.402Z,5.73
2018-03-28T06:34:17.787Z,6.07
2018-03-28T06:36:46.175Z,6.34
2018-03-28T06:39:14.706Z,6.23
2018-03-28T06:41:43.348Z,6.10
2018-03-28T06:44:11.855Z,6.38
2018-03-28T06:46:40.259Z,6.52
2018-03-28T06:49:08.785Z,6.95
2018-03-28T06:51:37.205Z,6.50
2018-03-28T06:54:06.040Z,6.38
2018-03-28T06:56:34.845Z,5.75
2018-03-28T06:59:03.766Z,5.63
2018-03-28T07:01:32.167Z,5.98
2018-03-28T07:04:00.627Z,5.85
2018-03-28T07:06:29.992Z,6.02
2018-03-28T07:08:58.939Z,5.93
2018-03-28T07:11:27.778Z,5.97
2018-03-28T07:13:56.964Z,6.22
2018-03-28T07:16:26.578Z,6.23
2018-03-28T07:18:55.334Z,5.96
2018-03-28T07:21:24.238Z,6.13
2018-03-28T07:23:53.949Z,6.40
2018-03-28T07:26:23.556Z,6.27
2018-03-28T07:28:52.639Z,6.06
2018-03-28T07:31:21.633Z,5.85
2018-03-28T07:33:51.804Z,5.94
2018-03-28T07:36:21.484Z,6.01
2018-03-28T07:38:49.926Z,6.21
2018-03-28T07:41:18.391Z,5.88
2018-03-28T07:43:46.925Z,5.73
2018-03-28T07:46:15.315Z,5.74
2018-03-28T07:48:43.690Z,5.66
2018-03-28T07:51:15.491Z,5.57
2018-03-28T07:53:44.284Z,5.59
2018-03-28T07:56:23.418Z,5.59
2018-03-28T07:58:52.916Z,5.50
2018-03-28T08:01:21.585Z,5.50
2018-03-28T08:03:50.069Z,5.54
2018-03-28T08:06:18.601Z,5.52
2018-03-28T08:08:47.460Z,5.43
2018-03-28T08:11:15.959Z,5.41
2018-03-28T08:13:44.570Z,5.30
2018-03-28T08:16:13.041Z,5.87
2018-03-28T08:18:41.547Z,6.00
2018-03-28T08:21:10.031Z,6.06
2018-03-28T08:23:38.791Z,5.63
2018-03-28T08:26:07.386Z,5.46
2018-03-28T08:28:35.866Z,5.57
2018-03-28T08:31:04.545Z,5.45
2018-03-28T08:33:33.027Z,5.56
2018-03-28T08:36:01.844Z,5.82
2018-03-28T08:38:30.317Z,5.47
2018-03-28T08:40:58.793Z,6.22
2018-03-28T08:43:27.265Z,5.72
2018-03-28T08:45:55.772Z,5.79
2018-03-28T08:48:24.259Z,5.65
2018-03-28T08:50:52.940Z,5.39
2018-03-28T08:53:21.426Z,5.53
2018-03-28T08:55:50.223Z,5.38
2018-03-28T08:58:18.977Z,5.43
2018-03-28T09:00:47.613Z,5.65
2018-03-28T09:03:16.102Z,5.61
2018-03-28T09:05:44.578Z,5.88
2018-03-28T09:08:13.107Z,5.75
2018-03-28T09:10:41.578Z,6.22
2018-03-28T09:13:10.246Z,6.02
2018-03-28T09:15:38.758Z,6.63
2018-03-28T09:18:07.361Z,6.18
2018-03-28T09:20:35.949Z,6.43
2018-03-28T09:23:04.609Z,5.76
2018-03-28T09:25:33.079Z,6.24
2018-03-28T09:28:01.774Z,6.08
2018-03-28T09:30:30.269Z,6.16
2018-03-28T09:32:59.340Z,6.00
2018-03-28T09:35:27.806Z,6.46
2018-03-28T09:37:56.441Z,6.30
2018-03-28T09:40:24.953Z,5.84
2018-03-28T09:42:53.459Z,6.06
2018-03-28T09:45:22.234Z,6.22
2018-03-28T09:47:50.786Z,5.70
2018-03-28T09:50:19.526Z,5.80
2018-03-28T09:52:48.130Z,5.97
2018-03-28T09:55:16.669Z,5.95
2018-03-28T09:57:45.196Z,5.75
2018-03-28T10:00:19.806Z,6.33
2018-03-28T10:02:48.443Z,5.58
2018-03-28T10:05:16.915Z,5.77
2018-03-28T10:07:45.489Z,6.17
2018-03-28T10:10:13.959Z,5.95
2018-03-28T10:12:42.713Z,6.02
2018-03-28T10:15:11.238Z,6.26
2018-03-28T10:17:39.757Z,5.82
2018-03-28T10:20:08.406Z,6.15
2018-03-28T10:22:37.126Z,6.17
2018-03-28T10:25:05.637Z,6.13
2018-03-28T10:27:34.168Z,5.83
2018-03-28T10:30:02.721Z,6.26
2018-03-28T10:32:31.275Z,5.96
2018-03-28T10:34:59.754Z,5.53
2018-03-28T10:37:28.241Z,5.89
2018-03-28T10:39:56.952Z,5.75
2018-03-28T10:42:25.439Z,5.81
2018-03-28T10:44:54.176Z,5.83
2018-03-28T10:47:22.678Z,6.10
2018-03-28T10:49:51.186Z,5.30
2018-03-28T10:52:19.665Z,5.63
2018-03-28T10:54:48.216Z,5.55
2018-03-28T10:57:16.745Z,5.64
2018-03-28T10:59:45.406Z,5.55
2018-03-28T11:02:13.876Z,5.40
2018-03-28T11:04:42.411Z,5.58
2018-03-28T11:07:10.908Z,5.87
2018-03-28T11:09:39.871Z,6.16
2018-03-28T11:12:08.378Z,5.71
2018-03-28T11:14:36.996Z,5.66
2018-03-28T11:17:05.566Z,5.21
2018-03-28T11:19:34.398Z,5.46
2018-03-28T11:22:03.106Z,5.21
2018-03-28T11:24:31.840Z,5.17
2018-03-28T11:27:00.359Z,5.28
2018-03-28T11:29:28.939Z,5.41
2018-03-28T11:31:57.568Z,5.75
2018-03-28T11:34:26.050Z,5.72
2018-03-28T11:36:54.910Z,6.38
2018-03-28T11:39:23.421Z,6.01
2018-03-28T11:41:52.305Z,5.64
2018-03-28T11:44:20.838Z,5.53
2018-03-28T11:46:49.370Z,5.64
2018-03-28T11:49:17.879Z,5.22
2018-03-28T11:51:46.669Z,5.68
2018-03-28T11:54:15.285Z,5.96
2018-03-28T11:56:43.823Z,5.91
2018-03-28T11:59:12.355Z,5.57
2018-03-28T12:01:41.003Z,5.64
2018-03-28T12:04:09.519Z,5.13
2018-03-28T12:06:38.102Z,5.13
2018-03-28T12:09:06.575Z,5.06
2018-03-28T12:11:35.053Z,5.39
2018-03-28T12:14:03.614Z,5.59
2018-03-28T12:16:32.284Z,5.34
2018-03-28T12:19:00.773Z,5.44
2018-03-28T12:21:29.300Z,5.62
2018-03-28T12:23:57.939Z,6.15
2018-03-28T12:26:26.518Z,5.56
2018-03-28T12:28:55.046Z,5.37
2018-03-28T12:31:23.791Z,6.16
2018-03-28T12:33:52.309Z,6.00
2018-03-28T12:36:21.092Z,5.97
2018-03-28T12:38:49.848Z,5.74
2018-03-28T12:41:18.494Z,5.73
2018-03-28T12:43:47.009Z,5.43
2018-03-28T12:46:15.534Z,5.80
2018-03-28T12:48:45.915Z,5.69
2018-03-28T12:51:14.421Z,5.99
2018-03-28T12:53:42.971Z,5.91
2018-03-28T12:56:11.758Z,5.62
2018-03-28T12:58:40.327Z,5.53
2018-03-28T13:01:08.973Z,5.50
2018-03-28T13:03:37.526Z,5.65
2018-03-28T13:06:06.157Z,5.88
2018-03-28T13:08:34.640Z,5.74
2018-03-28T13:11:05.366Z,5.70
2018-03-28T13:13:33.972Z,6.10
2018-03-28T13:16:02.534Z,5.91
2018-03-28T13:18:31.284Z,5.92
2018-03-28T13:20:59.732Z,5.54
2018-03-28T13:23:28.189Z,5.78
2018-03-28T13:25:56.735Z,5.47
2018-03-28T13:28:25.222Z,6.08
2018-03-28T13:30:53.739Z,6.24
2018-03-28T13:33:22.373Z,6.79
2018-03-28T13:35:50.847Z,6.32
2018-03-28T13:38:20.274Z,6.09
2018-03-28T13:40:49.085Z,5.96
2018-03-28T13:43:17.570Z,6.17
2018-03-28T13:45:46.407Z,5.85
2018-03-28T13:48:15.010Z,6.27
2018-03-28T13:50:43.575Z,6.10
2018-03-28T13:53:12.062Z,5.99
2018-03-28T13:55:41.055Z,5.98
2018-03-28T13:58:09.757Z,5.15
2018-03-28T14:00:38.781Z,5.37
2018-03-28T14:03:07.695Z,5.70
2018-03-28T14:05:36.224Z,5.71
2018-03-28T14:08:04.749Z,5.56
2018-03-28T14:10:33.214Z,5.36
2018-03-28T14:13:01.761Z,5.60
2018-03-28T14:15:30.295Z,5.63
2018-03-28T14:17:58.882Z,5.77
2018-03-28T14:20:27.375Z,5.78
2018-03-28T14:22:56.044Z,6.16
2018-03-28T14:25:24.550Z,5.76
2018-03-28T14:27:53.013Z,6.04
2018-03-28T14:30:21.589Z,6.04
2018-03-28T14:32:50.105Z,6.24
2018-03-28T14:35:18.586Z,6.40
2018-03-28T14:37:47.237Z,6.01
2018-03-28T14:40:15.769Z,5.87
2018-03-28T14:42:54.587Z,6.33
2018-03-28T14:45:12.964Z,5.98
2018-03-28T14:47:41.466Z,6.28
2018-03-28T14:50:09.938Z,6.26
2018-03-28T14:52:38.494Z,6.03
2018-03-28T14:55:06.993Z,6.26
2018-03-28T14:57:35.857Z,6.04
2018-03-28T15:00:04.361Z,5.82
2018-03-28T15:02:32.872Z,6.09
2018-03-28T15:05:01.649Z,6.14
2018-03-28T15:07:30.252Z,6.32
2018-03-28T15:09:58.816Z,6.40
2018-03-28T15:12:27.489Z,6.19
2018-03-28T15:14:56.029Z,6.12
2018-03-28T15:17:24.629Z,6.50
2018-03-28T15:19:53.182Z,6.15
2018-03-28T15:22:21.833Z,6.60
2018-03-28T15:24:50.481Z,6.16
2018-03-28T15:27:18.961Z,6.41
2018-03-28T15:29:47.700Z,6.41
2018-03-28T15:32:16.182Z,6.06
2018-03-28T15:34:45.044Z,6.02
2018-03-28T15:37:13.686Z,6.50
2018-03-28T15:39:42.210Z,5.79
2018-03-28T15:42:11.022Z,5.60
2018-03-28T15:44:40.013Z,5.64
2018-03-28T15:47:08.588Z,5.70
2018-03-28T15:49:37.638Z,6.14
2018-03-28T15:52:06.183Z,6.22
2018-03-28T15:54:34.660Z,6.23
2018-03-28T15:57:03.134Z,5.75
2018-03-28T15:59:32.518Z,5.87
2018-03-28T16:02:00.993Z,5.90
2018-03-28T16:04:29.573Z,6.43
2018-03-28T16:06:58.089Z,6.25
2018-03-28T16:09:26.824Z,5.82
2018-03-28T16:11:55.293Z,6.29
2018-03-28T16:14:24.008Z,6.06
2018-03-28T16:16:52.466Z,6.23
2018-03-28T16:19:21.163Z,6.31
2018-03-28T16:21:49.745Z,6.44
2018-03-28T16:24:18.296Z,6.36
2018-03-28T16:26:46.755Z,5.94
2018-03-28T16:29:15.501Z,5.93
2018-03-28T16:31:43.953Z,5.80
2018-03-28T16:34:12.485Z,5.97
2018-03-28T16:36:41.066Z,5.98
2018-03-28T16:39:09.552Z,5.92
2018-03-28T16:41:39.698Z,5.95
2018-03-28T16:44:08.683Z,6.11
2018-03-28T16:46:37.239Z,6.12
2018-03-28T16:49:05.692Z,6.47
2018-03-28T16:51:34.279Z,6.41
2018-03-28T16:54:03.257Z,5.68
2018-03-28T16:56:31.804Z,6.17
2018-03-28T16:59:00.283Z,6.03
2018-03-28T17:01:28.749Z,5.80
2018-03-28T17:05:15.488Z,5.88
2018-03-28T17:07:43.953Z,6.08
2018-03-28T17:10:12.432Z,5.88
2018-03-28T17:12:40.870Z,5.98
2018-03-28T17:15:09.327Z,6.05
2018-03-28T17:17:37.780Z,5.96
2018-03-28T17:20:06.239Z,6.11
2018-03-28T17:22:34.676Z,6.44
2018-03-28T17:25:03.131Z,6.40
2018-03-28T17:27:31.587Z,6.19
2018-03-28T17:30:00.052Z,5.85
2018-03-28T17:32:28.892Z,5.87
2018-03-28T17:34:57.379Z,5.88
2018-03-28T17:37:25.844Z,6.06
2018-03-28T17:39:54.287Z,6.09
2018-03-28T17:42:23.218Z,6.34
2018-03-28T17:44:51.693Z,6.78
2018-03-28T17:47:20.141Z,6.13
2018-03-28T17:49:48.983Z,5.97
2018-03-28T17:52:17.431Z,6.28
2018-03-28T17:54:45.869Z,6.55
2018-03-28T17:57:14.308Z,5.96
2018-03-28T17:59:42.744Z,6.77
2018-03-28T18:02:11.594Z,6.49
2018-03-28T18:04:40.028Z,5.91
2018-03-28T18:07:08.870Z,6.01
2018-03-28T18:09:37.311Z,5.96
2018-03-28T18:12:05.813Z,6.46
2018-03-28T18:14:34.260Z,6.38
2018-03-28T18:17:02.716Z,6.32
2018-03-28T18:19:31.167Z,6.08
2018-03-28T18:21:59.622Z,6.29
2018-03-28T18:24:28.053Z,5.72
2018-03-28T18:26:56.551Z,6.14
2018-03-28T18:29:25.404Z,6.08
2018-03-28T18:31:53.896Z,6.24
2018-03-28T18:34:22.329Z,6.58
2018-03-28T18:36:50.782Z,6.47
2018-03-28T18:39:19.607Z,6.03
2018-03-28T18:41:48.052Z,6.33
2018-03-28T18:44:16.980Z,6.49
2018-03-28T18:46:45.442Z,6.48
2018-03-28T18:49:13.949Z,6.43
2018-03-28T18:51:42.446Z,6.42
2018-03-28T18:54:10.916Z,5.87
2018-03-28T18:56:39.397Z,6.46
2018-03-28T18:59:07.894Z,6.50
2018-03-28T19:01:36.349Z,6.10
2018-03-28T19:04:04.840Z,6.35
2018-03-28T19:06:33.320Z,6.87
2018-03-28T19:09:01.761Z,6.83
2018-03-28T19:11:30.595Z,6.54
2018-03-28T19:13:59.073Z,6.41
2018-03-28T19:16:27.521Z,6.65
2018-03-28T19:18:55.988Z,6.77
2018-03-28T19:21:24.831Z,6.71
2018-03-28T19:23:53.304Z,6.61
2018-03-28T19:26:21.749Z,6.91
2018-03-28T19:28:50.684Z,7.43
2018-03-28T19:31:19.170Z,7.32
2018-03-28T19:33:47.685Z,7.41
2018-03-28T19:36:16.568Z,7.01
2018-03-28T19:38:45.110Z,6.65
2018-03-28T19:41:13.553Z,6.44
2018-03-28T19:43:42.406Z,6.71
2018-03-28T19:46:10.889Z,7.03
2018-03-28T19:48:39.328Z,6.89
2018-03-28T19:51:07.789Z,6.71
2018-03-28T19:53:36.620Z,6.80
2018-03-28T19:56:05.095Z,6.45
2018-03-28T19:58:33.578Z,6.92
2018-03-28T20:01:02.240Z,6.65
2018-03-28T20:03:30.979Z,6.75
2018-03-28T20:05:59.463Z,6.43
2018-03-28T20:08:27.923Z,6.68
2018-03-28T20:10:56.391Z,6.64
2018-03-28T20:13:25.495Z,6.87
2018-03-28T20:15:53.966Z,6.74
2018-03-28T20:18:22.426Z,6.51
2018-03-28T20:20:50.939Z,6.08
2018-03-28T20:23:19.386Z,6.62
2018-03-28T20:25:48.706Z,6.43
2018-03-28T20:28:18.309Z,6.49
2018-03-28T20:30:47.483Z,6.32
2018-03-28T20:33:17.821Z,6.48
2018-03-28T20:35:47.882Z,6.55
2018-03-28T20:38:18.264Z,6.60
2018-03-28T20:40:47.712Z,6.60
2018-03-28T20:43:17.571Z,6.68
2018-03-28T20:45:49.448Z,6.63
2018-03-28T20:48:18.628Z,6.17
2018-03-28T20:50:52.338Z,6.34
2018-03-28T20:53:20.790Z,6.23
2018-03-28T20:55:49.270Z,6.26
2018-03-28T20:58:17.823Z,6.29
2018-03-28T21:00:46.342Z,6.43
2018-03-28T21:03:18.192Z,6.52
2018-03-28T21:05:46.704Z,6.22
2018-03-28T21:08:15.573Z,6.24
2018-03-28T21:10:44.031Z,6.28
2018-03-28T21:13:13.136Z,5.91
2018-03-28T21:15:41.599Z,6.21
2018-03-28T21:18:10.073Z,6.58
2018-03-28T21:20:39.061Z,6.53
2018-03-28T21:23:07.558Z,6.92
2018-03-28T21:25:36.031Z,6.63
2018-03-28T21:28:04.829Z,6.67
2018-03-28T21:30:33.538Z,6.68
2018-03-28T21:33:03.163Z,6.09
2018-03-28T21:35:33.945Z,6.57
2018-03-28T21:38:02.420Z,6.78
2018-03-28T21:40:31.106Z,6.77
2018-03-28T21:42:59.603Z,6.77
2018-03-28T21:45:28.077Z,6.28
2018-03-28T21:47:56.528Z,6.59
2018-03-28T21:50:25.317Z,6.44
2018-03-28T21:52:53.827Z,6.49
2018-03-28T21:55:22.390Z,6.47
2018-03-28T21:57:52.088Z,6.52
2018-03-28T22:00:20.546Z,6.55
2018-03-28T22:02:49.390Z,6.97
2018-03-28T22:05:17.876Z,6.57
2018-03-28T22:07:46.641Z,6.58
2018-03-28T22:10:15.813Z,6.40
2018-03-28T22:12:44.311Z,6.58
2018-03-28T22:15:15.409Z,6.72
2018-03-28T22:17:44.744Z,6.52
2018-03-28T22:20:15.018Z,6.50
2018-03-28T22:22:43.589Z,6.64
2018-03-28T22:25:12.076Z,6.52
2018-03-28T22:27:41.389Z,6.45
2018-03-28T22:30:10.023Z,6.66
2018-03-28T22:32:39.972Z,6.54
2018-03-28T22:35:08.617Z,6.85
2018-03-28T22:37:37.794Z,6.87
2018-03-28T22:40:07.425Z,6.88
2018-03-28T22:42:36.702Z,7.18
2018-03-28T22:45:05.441Z,7.54
2018-03-28T22:47:34.519Z,7.59
2018-03-28T22:50:04.022Z,7.14
2018-03-28T22:52:33.283Z,7.10
2018-03-28T22:55:02.715Z,7.12
2018-03-28T22:57:32.107Z,6.92
2018-03-28T23:00:02.565Z,7.06
2018-03-28T23:02:31.948Z,6.39
2018-03-28T23:05:02.604Z,6.65
2018-03-28T23:07:32.784Z,6.69
2018-03-28T23:10:03.759Z,6.75
2018-03-28T23:12:32.695Z,6.95
2018-03-28T23:15:01.299Z,7.14
2018-03-28T23:17:30.151Z,6.71
2018-03-28T23:19:58.628Z,6.92
2018-03-28T23:22:38.479Z,6.94
2018-03-28T23:25:06.934Z,7.21
2018-03-28T23:27:35.389Z,7.46
2018-03-28T23:30:03.866Z,6.73
2018-03-28T23:32:32.712Z,6.97
2018-03-28T23:35:01.223Z,7.31
2018-03-28T23:37:29.746Z,7.33
2018-03-28T23:39:58.301Z,6.98
2018-03-28T23:42:27.148Z,7.29
2018-03-28T23:44:55.598Z,7.56
2018-03-28T23:47:24.058Z,7.02
2018-03-28T23:49:52.911Z,7.05
2018-03-28T23:52:21.377Z,7.02
2018-03-28T23:54:49.934Z,7.10
2018-03-28T23:57:18.394Z,6.89
2018-03-28T23:59:47.294Z,6.92
